KBAF/BAF METAR and TAF weather

Enter ICAO airport designator
Station Type Date Time Source
KBAF METAR 2022/06/28 23:53 UTC NOAA

KBAF 282353Z 26005KT 10SM CLR 24/10 A3013 RMK AO2 SLP202 T02390100 10272 20239 53004


Station Type Date Time Source
KBAF Decoded METAR 2022/06/28 23:53 UTC NOAA

WESTFIELD BARNES MUNICIPAL, MA, United States (KBAF) 42-10N 072-43W 83M
Jun 28, 2022 - 07:53 PM EDT / 2022.06.28 2353 UTC
Wind: from the W (260 degrees) at 6 MPH (5 KT):0
Visibility: 10 mile(s):0
Sky conditions: clear
Temperature: 75.0 F (23.9 C)
Dew Point: 50.0 F (10.0 C)
Relative Humidity: 41%
Pressure (altimeter): 30.13 in. Hg (1020 hPa)
Pressure tendency: 0.01 inches (0.4 hPa) higher than three hours ago
ob: KBAF 282353Z 26005KT 10SM CLR 24/10 A3013 RMK AO2 SLP202 T02390100 10272 20239 53004
cycle: 0

Station Type Date Time Source
KBAF TAF 2022/06/28 18:51 UTC NOAA

TAF KBAF 281749Z 2818/2918 32005KT P6SM SCT045
FM282200 33004KT P6SM FEW080
FM290000 00000KT P6SM FEW090
FM291100 00000KT P6SM FEW090
FM291400 21004KT P6SM SKC
FM291600 21005KT P6SM FEW060

Example: see airport list